createdAt,value
2023-05-08T00:00:43.909Z,10.16
2023-05-08T00:03:11.604Z,10.23
2023-05-08T00:05:41.903Z,10.17
2023-05-08T00:08:09.586Z,10.31
2023-05-08T00:10:38.554Z,10.32
2023-05-08T00:13:06.461Z,10.33
2023-05-08T00:15:34.238Z,10.27
2023-05-08T00:18:01.907Z,10.15
2023-05-08T00:20:29.505Z,10.15
2023-05-08T00:22:57.882Z,10.21
2023-05-08T00:25:26.000Z,10.24
2023-05-08T00:27:55.048Z,10.23
2023-05-08T00:30:23.347Z,10.37
2023-05-08T00:32:51.058Z,10.26
2023-05-08T00:35:18.893Z,10.30
2023-05-08T00:37:46.576Z,10.13
2023-05-08T00:40:14.703Z,10.24
2023-05-08T00:42:42.604Z,10.23
2023-05-08T00:45:12.639Z,10.12
2023-05-08T00:47:40.847Z,10.06
2023-05-08T00:50:10.605Z,9.99
2023-05-08T00:52:39.446Z,10.00
2023-05-08T00:55:07.816Z,10.10
2023-05-08T00:57:37.809Z,10.09
2023-05-08T01:00:07.808Z,10.04
2023-05-08T01:02:37.069Z,9.94
2023-05-08T01:05:05.173Z,9.94
2023-05-08T01:07:33.657Z,9.91
2023-05-08T01:10:01.548Z,9.98
2023-05-08T01:12:41.837Z,9.94
2023-05-08T01:15:13.524Z,9.98
2023-05-08T01:17:52.576Z,10.03
2023-05-08T01:20:31.120Z,9.95
2023-05-08T01:23:13.572Z,10.10
2023-05-08T01:26:16.415Z,10.00
2023-05-08T01:29:05.304Z,10.01
2023-05-08T01:31:44.114Z,9.96
2023-05-08T01:34:20.868Z,9.73
2023-05-08T01:36:53.397Z,9.66
2023-05-08T01:39:23.680Z,9.55
2023-05-08T01:41:59.760Z,9.55
2023-05-08T01:44:32.530Z,9.52
2023-05-08T01:47:06.356Z,9.59
2023-05-08T01:49:41.088Z,9.52
2023-05-08T01:52:14.711Z,9.59
2023-05-08T01:54:47.677Z,9.68
2023-05-08T01:57:17.946Z,9.56
2023-05-08T01:59:46.823Z,9.58
2023-05-08T02:02:15.654Z,9.63
2023-05-08T02:04:45.970Z,9.68
2023-05-08T02:07:14.111Z,9.60
2023-05-08T02:09:44.290Z,9.42
2023-05-08T02:12:14.106Z,9.44
2023-05-08T02:14:43.559Z,9.48
2023-05-08T02:17:13.464Z,9.34
2023-05-08T02:19:43.598Z,9.39
2023-05-08T02:22:13.657Z,9.29
2023-05-08T02:24:42.755Z,9.44
2023-05-08T02:27:12.917Z,9.29
2023-05-08T02:29:41.142Z,9.43
2023-05-08T02:32:09.650Z,9.47
2023-05-08T02:34:41.045Z,9.56
2023-05-08T02:37:15.852Z,9.32
2023-05-08T02:39:44.843Z,9.41
2023-05-08T02:42:12.763Z,9.41
2023-05-08T02:44:40.576Z,9.43
2023-05-08T02:47:20.122Z,9.37
2023-05-08T02:49:54.110Z,9.33
2023-05-08T02:52:30.289Z,9.30
2023-05-08T02:55:02.206Z,9.16
2023-05-08T02:57:38.973Z,9.34
2023-05-08T03:00:15.533Z,9.34
2023-05-08T03:02:49.180Z,9.28
2023-05-08T03:05:20.665Z,9.20
2023-05-08T03:07:54.160Z,9.21
2023-05-08T03:10:26.220Z,9.06
2023-05-08T03:12:56.846Z,8.99
2023-05-08T03:15:27.243Z,9.02
2023-05-08T03:17:58.267Z,8.97
2023-05-08T03:20:32.222Z,9.04
2023-05-08T03:23:03.841Z,8.85
2023-05-08T03:25:34.978Z,8.88
2023-05-08T03:28:04.895Z,8.92
2023-05-08T03:30:33.579Z,8.84
2023-05-08T03:33:04.610Z,8.95
2023-05-08T03:35:33.044Z,8.86
2023-05-08T03:38:02.417Z,8.84
2023-05-08T03:40:30.445Z,8.84
2023-05-08T03:43:01.516Z,8.99
2023-05-08T03:45:30.207Z,8.97
2023-05-08T03:47:59.185Z,8.70
2023-05-08T03:50:27.144Z,8.61
2023-05-08T03:52:55.622Z,8.60
2023-05-08T03:55:24.613Z,8.63
2023-05-08T03:58:00.797Z,8.70
2023-05-08T04:00:36.504Z,8.86
2023-05-08T04:03:14.857Z,8.82
2023-05-08T04:05:50.760Z,8.69
2023-05-08T04:08:23.710Z,8.75
2023-05-08T04:10:59.833Z,8.69
2023-05-08T04:13:31.960Z,8.68
2023-05-08T04:16:07.568Z,8.56
2023-05-08T04:18:38.797Z,8.56
2023-05-08T04:21:10.518Z,8.58
2023-05-08T04:23:41.031Z,8.61
2023-05-08T04:26:11.976Z,8.58
2023-05-08T04:28:40.641Z,8.73
2023-05-08T04:31:09.329Z,8.74
2023-05-08T04:33:37.884Z,8.65
2023-05-08T04:36:07.849Z,8.88
2023-05-08T04:38:37.492Z,8.99
2023-05-08T04:41:05.489Z,9.10
2023-05-08T04:43:35.088Z,9.20
2023-05-08T04:46:03.329Z,9.16
2023-05-08T04:48:33.241Z,9.13
2023-05-08T04:51:01.228Z,9.23
2023-05-08T04:53:29.040Z,9.20
2023-05-08T04:55:57.592Z,9.12
2023-05-08T04:58:25.345Z,8.94
2023-05-08T05:00:54.234Z,9.01
2023-05-08T05:03:22.006Z,8.91
2023-05-08T05:05:49.599Z,8.87
2023-05-08T05:08:17.277Z,8.94
2023-05-08T05:10:45.024Z,8.83
2023-05-08T05:13:12.616Z,8.99
2023-05-08T05:15:43.141Z,8.99
2023-05-08T05:18:12.601Z,9.04
2023-05-08T05:20:40.612Z,9.05
2023-05-08T05:23:08.608Z,8.91
2023-05-08T05:25:36.499Z,9.04
2023-05-08T05:28:04.552Z,8.74
2023-05-08T05:30:32.461Z,8.77
2023-05-08T05:33:00.548Z,8.80
2023-05-08T05:35:30.032Z,8.95
2023-05-08T05:37:59.090Z,9.11
2023-05-08T05:40:26.747Z,9.26
2023-05-08T05:42:54.347Z,9.22
2023-05-08T05:45:22.117Z,9.32
2023-05-08T05:47:50.708Z,9.23
2023-05-08T05:50:19.119Z,9.25
2023-05-08T05:52:48.127Z,9.30
2023-05-08T05:55:17.151Z,9.42
2023-05-08T05:57:45.810Z,9.31
2023-05-08T06:00:14.044Z,9.36
2023-05-08T06:02:42.472Z,9.29
2023-05-08T06:05:11.452Z,9.34
2023-05-08T06:07:39.739Z,9.45
2023-05-08T06:10:09.855Z,9.61
2023-05-08T06:12:37.565Z,9.71
2023-05-08T06:15:06.421Z,9.83
2023-05-08T06:17:34.146Z,9.94
2023-05-08T06:20:01.826Z,9.92
2023-05-08T06:22:29.968Z,9.82
2023-05-08T06:24:57.689Z,9.90
2023-05-08T06:27:26.925Z,9.95
2023-05-08T06:29:54.576Z,10.05
2023-05-08T06:32:22.994Z,10.05
2023-05-08T06:34:50.662Z,10.04
2023-05-08T06:37:28.773Z,10.14
2023-05-08T06:40:04.255Z,10.10
2023-05-08T06:42:41.053Z,10.37
2023-05-08T06:45:09.734Z,10.33
2023-05-08T06:47:37.797Z,10.32
2023-05-08T06:50:06.730Z,10.32
2023-05-08T06:52:34.332Z,10.41
2023-05-08T06:55:02.156Z,10.47
2023-05-08T06:57:30.349Z,10.66
2023-05-08T06:59:59.373Z,10.56
2023-05-08T07:02:27.149Z,10.67
2023-05-08T07:04:54.900Z,10.73
2023-05-08T07:07:22.538Z,10.72
2023-05-08T07:09:50.250Z,10.82
2023-05-08T07:12:17.936Z,10.97
2023-05-08T07:14:45.643Z,10.91
2023-05-08T07:17:15.654Z,10.94
2023-05-08T07:19:43.250Z,10.87
2023-05-08T07:22:10.991Z,10.97
2023-05-08T07:24:38.621Z,11.10
2023-05-08T07:27:06.446Z,11.19
2023-05-08T07:29:35.967Z,11.23
2023-05-08T07:32:03.681Z,11.38
2023-05-08T07:34:34.480Z,11.42
2023-05-08T07:37:02.641Z,11.48
2023-05-08T07:39:30.314Z,11.58
2023-05-08T07:41:57.932Z,11.65
2023-05-08T07:44:25.731Z,11.57
2023-05-08T07:46:53.463Z,11.69
2023-05-08T07:49:21.156Z,11.66
2023-05-08T07:51:50.096Z,11.63
2023-05-08T07:54:17.724Z,11.71
2023-05-08T07:56:45.469Z,11.99
2023-05-08T07:59:13.098Z,12.08
2023-05-08T08:01:42.563Z,12.14
2023-05-08T08:04:10.279Z,12.19
2023-05-08T08:06:38.057Z,12.21
2023-05-08T08:09:07.015Z,12.31
2023-05-08T08:11:34.927Z,12.33
2023-05-08T08:14:16.299Z,12.35
2023-05-08T08:16:44.199Z,12.35
2023-05-08T08:19:12.013Z,12.46
2023-05-08T08:21:43.239Z,12.60
2023-05-08T08:24:12.202Z,12.59
2023-05-08T08:26:39.799Z,12.73
2023-05-08T08:29:07.398Z,12.77
2023-05-08T08:31:35.142Z,12.80
2023-05-08T08:34:02.972Z,12.83
2023-05-08T08:36:30.686Z,12.88
2023-05-08T08:38:58.285Z,13.02
2023-05-08T08:41:27.965Z,13.12
2023-05-08T08:43:55.791Z,13.16
2023-05-08T08:46:25.664Z,13.29
2023-05-08T08:48:55.603Z,13.23
2023-05-08T08:51:28.859Z,13.37
2023-05-08T08:54:05.228Z,13.50
2023-05-08T08:56:37.015Z,13.53
2023-05-08T08:59:06.379Z,13.52
2023-05-08T09:01:36.877Z,13.50
2023-05-08T09:04:05.413Z,13.48
2023-05-08T09:06:36.985Z,13.64
2023-05-08T09:09:05.522Z,13.70
2023-05-08T09:11:34.595Z,13.66
2023-05-08T09:14:03.462Z,13.73
2023-05-08T09:16:31.298Z,13.76
2023-05-08T09:18:58.986Z,13.78
2023-05-08T09:21:28.283Z,13.91
2023-05-08T09:23:57.286Z,13.98
2023-05-08T09:26:29.162Z,14.01
2023-05-08T09:29:11.406Z,13.91
2023-05-08T09:31:40.726Z,14.07
2023-05-08T09:34:08.820Z,14.11
2023-05-08T09:36:36.504Z,14.14
2023-05-08T09:39:04.663Z,14.20
2023-05-08T09:41:32.369Z,14.34
2023-05-08T09:44:04.788Z,14.35
2023-05-08T09:46:34.927Z,14.47
2023-05-08T09:49:04.647Z,14.52
2023-05-08T09:51:33.232Z,14.45
2023-05-08T09:54:04.052Z,14.52
2023-05-08T09:56:36.624Z,14.59
2023-05-08T09:59:06.367Z,14.57
2023-05-08T10:01:36.786Z,14.59
2023-05-08T10:04:06.020Z,14.65
2023-05-08T10:06:34.487Z,14.73
2023-05-08T10:09:09.019Z,14.90
2023-05-08T10:11:37.164Z,15.08
2023-05-08T10:14:04.799Z,15.10
2023-05-08T10:16:42.432Z,15.06
2023-05-08T10:19:14.884Z,15.07
2023-05-08T10:21:45.125Z,15.19
2023-05-08T10:24:16.353Z,15.24
2023-05-08T10:26:53.826Z,15.23
2023-05-08T10:29:35.226Z,15.27
2023-05-08T10:32:10.197Z,15.30
2023-05-08T10:34:42.136Z,15.37
2023-05-08T10:37:11.022Z,15.42
2023-05-08T10:39:39.591Z,15.44
2023-05-08T10:42:08.202Z,15.48
2023-05-08T10:44:35.943Z,15.47
2023-05-08T10:47:12.956Z,15.43
2023-05-08T10:49:48.874Z,15.52
2023-05-08T10:52:21.958Z,15.51
2023-05-08T10:55:10.243Z,15.43
2023-05-08T10:57:37.907Z,15.44
2023-05-08T11:00:06.763Z,15.49
2023-05-08T11:02:37.826Z,15.57
2023-05-08T11:05:18.829Z,15.62
2023-05-08T11:07:56.737Z,15.65
2023-05-08T11:10:31.208Z,15.75
2023-05-08T11:12:59.799Z,15.75
2023-05-08T11:15:39.258Z,15.84
2023-05-08T11:18:11.344Z,15.84
2023-05-08T11:20:40.230Z,15.88
2023-05-08T11:23:22.791Z,15.95
2023-05-08T11:26:01.295Z,16.06
2023-05-08T11:28:29.505Z,16.10
2023-05-08T11:30:57.428Z,16.08
2023-05-08T11:33:31.465Z,16.22
2023-05-08T11:36:01.101Z,16.32
2023-05-08T11:38:31.479Z,16.45
2023-05-08T11:41:07.024Z,16.45
2023-05-08T11:44:09.272Z,16.62
2023-05-08T11:46:41.214Z,16.91
2023-05-08T11:49:15.429Z,17.02
2023-05-08T11:51:46.790Z,17.17
2023-05-08T11:54:16.685Z,17.25
2023-05-08T11:56:47.905Z,17.34
2023-05-08T11:59:16.749Z,17.42
2023-05-08T12:01:48.506Z,17.58
2023-05-08T12:04:25.881Z,17.80
2023-05-08T12:06:58.450Z,17.99
2023-05-08T12:09:26.126Z,18.13
2023-05-08T12:11:58.215Z,18.48
2023-05-08T12:14:25.875Z,18.57
2023-05-08T12:16:53.647Z,18.47
2023-05-08T12:19:21.374Z,18.53
2023-05-08T12:21:51.257Z,18.37
2023-05-08T12:24:22.899Z,18.61
2023-05-08T12:26:54.011Z,18.63
2023-05-08T12:29:21.625Z,18.76
2023-05-08T12:31:49.707Z,18.96
2023-05-08T12:34:17.581Z,18.82
2023-05-08T12:36:45.349Z,18.90
2023-05-08T12:39:15.684Z,18.94
2023-05-08T12:41:47.352Z,19.07
2023-05-08T12:44:23.927Z,19.19
2023-05-08T12:46:52.452Z,19.27
2023-05-08T12:49:31.171Z,19.38
2023-05-08T12:52:06.742Z,19.37
2023-05-08T12:54:37.865Z,19.36
2023-05-08T12:57:12.764Z,19.46
2023-05-08T12:59:41.106Z,19.44
2023-05-08T13:02:16.978Z,19.57
2023-05-08T13:04:45.549Z,19.79
2023-05-08T13:07:13.602Z,19.67
2023-05-08T13:09:57.314Z,19.72
2023-05-08T13:12:25.153Z,19.89
2023-05-08T13:14:52.842Z,19.94
2023-05-08T13:17:20.565Z,20.24
2023-05-08T13:19:48.321Z,20.39
2023-05-08T13:22:15.927Z,20.24
2023-05-08T13:24:44.804Z,20.07
2023-05-08T13:27:13.561Z,20.17
2023-05-08T13:29:41.416Z,20.28
2023-05-08T13:32:09.096Z,20.42
2023-05-08T13:34:41.480Z,20.54
2023-05-08T13:37:15.247Z,20.58
2023-05-08T13:39:43.249Z,20.52
2023-05-08T13:42:12.199Z,20.74
2023-05-08T13:44:40.570Z,20.88
2023-05-08T13:47:08.429Z,20.87
2023-05-08T13:49:36.066Z,21.02
2023-05-08T13:52:03.899Z,21.13
2023-05-08T13:54:31.662Z,21.01
2023-05-08T13:56:59.364Z,21.08
2023-05-08T13:59:28.922Z,21.12
2023-05-08T14:01:56.719Z,21.32
2023-05-08T14:04:24.352Z,21.30
2023-05-08T14:06:51.970Z,21.16
2023-05-08T14:09:19.681Z,21.22
2023-05-08T14:11:47.309Z,21.25
2023-05-08T14:14:14.934Z,21.43
2023-05-08T14:16:43.964Z,21.55
2023-05-08T14:19:11.608Z,21.60
2023-05-08T14:21:39.444Z,21.57
2023-05-08T14:24:07.529Z,21.74
2023-05-08T14:26:35.201Z,21.49
2023-05-08T14:29:02.889Z,21.46
2023-05-08T14:31:30.570Z,21.52
2023-05-08T14:33:59.678Z,21.76
2023-05-08T14:36:27.846Z,21.67
2023-05-08T14:38:55.516Z,21.85
2023-05-08T14:41:23.270Z,21.98
2023-05-08T14:43:50.881Z,21.98
2023-05-08T14:46:18.646Z,21.91
2023-05-08T14:48:46.249Z,22.15
2023-05-08T14:51:15.312Z,22.30
2023-05-08T14:53:43.097Z,22.28
2023-05-08T14:56:11.114Z,22.26
2023-05-08T14:58:39.213Z,22.17
2023-05-08T15:01:07.068Z,22.18
2023-05-08T15:03:34.859Z,22.07
2023-05-08T15:06:02.648Z,21.94
2023-05-08T15:08:31.902Z,21.53
2023-05-08T15:10:59.886Z,21.35
2023-05-08T15:13:27.670Z,21.20
2023-05-08T15:15:55.508Z,21.12
2023-05-08T15:18:24.589Z,21.10
2023-05-08T15:20:52.276Z,20.94
2023-05-08T15:23:20.367Z,21.16
2023-05-08T15:25:49.575Z,20.83
2023-05-08T15:28:17.167Z,20.60
2023-05-08T15:30:46.744Z,20.56
2023-05-08T15:33:14.432Z,20.31
2023-05-08T15:35:43.031Z,20.10
2023-05-08T15:38:11.713Z,20.09
2023-05-08T15:40:39.680Z,19.85
2023-05-08T15:43:08.635Z,19.81
2023-05-08T15:45:36.389Z,19.84
2023-05-08T15:48:04.089Z,19.70
2023-05-08T15:50:31.685Z,19.49
2023-05-08T15:53:00.048Z,19.59
2023-05-08T15:55:28.056Z,19.56
2023-05-08T15:57:55.795Z,19.54
2023-05-08T16:00:30.161Z,19.45
2023-05-08T16:03:04.873Z,19.40
2023-05-08T16:05:32.661Z,19.40
2023-05-08T16:08:00.402Z,19.29
2023-05-08T16:10:28.075Z,19.17
2023-05-08T16:12:55.811Z,19.27
2023-05-08T16:15:24.758Z,19.28
2023-05-08T16:17:52.476Z,19.23
2023-05-08T16:20:20.454Z,19.18
2023-05-08T16:22:48.252Z,19.15
2023-05-08T16:25:15.884Z,19.11
2023-05-08T16:27:43.562Z,19.10
2023-05-08T16:30:12.250Z,19.06
2023-05-08T16:32:41.344Z,19.07
2023-05-08T16:35:09.730Z,19.09
2023-05-08T16:37:37.642Z,19.10
2023-05-08T16:40:06.781Z,19.02
2023-05-08T16:42:34.423Z,18.94
2023-05-08T16:45:02.080Z,18.94
2023-05-08T16:47:29.868Z,18.95
2023-05-08T16:49:58.952Z,18.93
2023-05-08T16:52:26.751Z,18.89
2023-05-08T16:54:54.472Z,18.86
2023-05-08T16:57:22.137Z,18.87
2023-05-08T16:59:50.141Z,18.81
2023-05-08T17:02:19.027Z,18.80
2023-05-08T17:04:47.924Z,18.74
2023-05-08T17:07:17.945Z,18.73
2023-05-08T17:09:48.360Z,18.67
2023-05-08T17:12:16.008Z,18.71
2023-05-08T17:14:43.956Z,18.65
2023-05-08T17:17:11.755Z,18.65
2023-05-08T17:19:39.639Z,18.60
2023-05-08T17:22:07.322Z,18.59
2023-05-08T17:24:37.861Z,18.58
2023-05-08T17:27:07.885Z,18.54
2023-05-08T17:29:36.273Z,18.54
2023-05-08T17:32:04.557Z,18.43
2023-05-08T17:34:32.398Z,18.40
2023-05-08T17:37:00.220Z,18.39
2023-05-08T17:39:28.024Z,18.39
2023-05-08T17:41:57.209Z,18.32
2023-05-08T17:44:25.112Z,18.25
2023-05-08T17:46:53.004Z,18.27
2023-05-08T17:49:21.151Z,18.25
2023-05-08T17:51:49.112Z,18.22
2023-05-08T17:54:16.782Z,18.23
2023-05-08T17:56:45.376Z,18.24
2023-05-08T17:59:15.122Z,18.19
2023-05-08T18:01:43.345Z,18.18
2023-05-08T18:04:11.378Z,18.04
2023-05-08T18:06:39.244Z,18.02
2023-05-08T18:09:07.189Z,18.01
2023-05-08T18:11:34.821Z,18.05
2023-05-08T18:14:02.644Z,18.02
2023-05-08T18:16:31.885Z,17.96
2023-05-08T18:18:59.778Z,17.95
2023-05-08T18:21:29.855Z,17.92
2023-05-08T18:23:57.637Z,17.88
2023-05-08T18:26:25.448Z,17.81
2023-05-08T18:28:53.456Z,17.75
2023-05-08T18:31:21.445Z,17.69
2023-05-08T18:33:50.952Z,17.64
2023-05-08T18:36:19.167Z,17.74
2023-05-08T18:38:46.988Z,17.69
2023-05-08T18:41:14.925Z,17.73
2023-05-08T18:43:43.061Z,17.81
2023-05-08T18:46:12.401Z,17.75
2023-05-08T18:48:40.809Z,17.73
2023-05-08T18:51:10.526Z,17.73
2023-05-08T18:53:39.027Z,17.70
2023-05-08T18:56:06.822Z,17.72
2023-05-08T18:58:34.826Z,17.69
2023-05-08T19:01:03.874Z,17.58
2023-05-08T19:03:31.859Z,17.53
2023-05-08T19:06:00.899Z,17.39
2023-05-08T19:08:29.850Z,17.35
2023-05-08T19:10:57.975Z,17.32
2023-05-08T19:13:26.033Z,17.28
2023-05-08T19:15:54.295Z,17.24
2023-05-08T19:18:22.294Z,17.13
2023-05-08T19:20:50.663Z,17.08
2023-05-08T19:23:18.614Z,17.06
2023-05-08T19:25:47.631Z,17.08
2023-05-08T19:28:15.728Z,17.02
2023-05-08T19:30:43.418Z,16.97
2023-05-08T19:33:11.254Z,16.95
2023-05-08T19:35:38.871Z,16.90
2023-05-08T19:38:06.807Z,16.99
2023-05-08T19:40:41.300Z,17.01
2023-05-08T19:43:21.399Z,17.03
2023-05-08T19:45:49.373Z,17.02
2023-05-08T19:48:19.496Z,16.95
2023-05-08T19:50:47.653Z,17.03
2023-05-08T19:53:15.558Z,16.99
2023-05-08T19:55:43.387Z,16.87
2023-05-08T19:58:11.098Z,16.90
2023-05-08T20:00:40.416Z,16.83
2023-05-08T20:03:08.147Z,16.76
2023-05-08T20:05:36.110Z,16.75
2023-05-08T20:08:03.938Z,16.58
2023-05-08T20:10:31.631Z,16.54
2023-05-08T20:12:59.246Z,16.51
2023-05-08T20:15:27.231Z,16.52
2023-05-08T20:17:56.370Z,16.44
2023-05-08T20:20:24.681Z,16.42
2023-05-08T20:22:52.725Z,16.33
2023-05-08T20:25:20.538Z,16.35
2023-05-08T20:27:48.512Z,16.33
2023-05-08T20:30:16.472Z,16.25
2023-05-08T20:32:44.477Z,16.16
2023-05-08T20:35:14.655Z,16.15
2023-05-08T20:37:46.176Z,16.14
2023-05-08T20:40:15.036Z,16.19
2023-05-08T20:42:43.331Z,16.08
2023-05-08T20:45:12.097Z,16.10
2023-05-08T20:47:40.068Z,16.01
2023-05-08T20:50:08.600Z,15.94
2023-05-08T20:52:38.878Z,15.92
2023-05-08T20:55:09.186Z,15.96
2023-05-08T20:57:37.032Z,15.90
2023-05-08T21:00:06.040Z,15.84
2023-05-08T21:02:34.004Z,15.87
2023-05-08T21:05:01.739Z,15.82
2023-05-08T21:07:29.614Z,15.82
2023-05-08T21:09:59.755Z,15.78
2023-05-08T21:12:27.470Z,15.69
2023-05-08T21:14:55.234Z,15.73
2023-05-08T21:17:22.951Z,15.80
2023-05-08T21:19:50.840Z,15.85
2023-05-08T21:22:18.528Z,15.65
2023-05-08T21:24:46.152Z,15.64
2023-05-08T21:27:15.124Z,15.61
2023-05-08T21:29:42.747Z,15.58
2023-05-08T21:32:10.559Z,15.45
2023-05-08T21:34:38.210Z,15.43
2023-05-08T21:37:06.021Z,15.46
2023-05-08T21:39:33.645Z,15.35
2023-05-08T21:42:02.072Z,15.30
2023-05-08T21:44:31.374Z,15.31
2023-05-08T21:46:59.068Z,15.28
2023-05-08T21:49:26.711Z,15.28
2023-05-08T21:51:54.619Z,15.25
2023-05-08T21:54:24.133Z,15.31
2023-05-08T21:56:51.851Z,15.25
2023-05-08T21:59:19.864Z,15.26
2023-05-08T22:01:48.938Z,15.20
2023-05-08T22:04:16.610Z,15.18
2023-05-08T22:06:44.543Z,15.24
2023-05-08T22:09:12.229Z,15.25
2023-05-08T22:11:40.092Z,15.17
2023-05-08T22:14:07.800Z,15.16
2023-05-08T22:16:35.808Z,15.11
2023-05-08T22:19:04.863Z,15.06
2023-05-08T22:21:32.901Z,14.99
2023-05-08T22:24:00.752Z,14.98
2023-05-08T22:26:29.137Z,15.01
2023-05-08T22:28:57.077Z,14.98
2023-05-08T22:31:24.792Z,14.85
2023-05-08T22:33:52.477Z,14.92
2023-05-08T22:36:23.839Z,14.92
2023-05-08T22:38:51.647Z,14.91
2023-05-08T22:41:19.357Z,14.91
2023-05-08T22:43:47.017Z,14.91
2023-05-08T22:46:14.867Z,14.83
2023-05-08T22:48:42.730Z,14.82
2023-05-08T22:51:10.749Z,14.80
2023-05-08T22:53:39.818Z,14.78
2023-05-08T22:56:07.784Z,14.82
2023-05-08T22:58:35.598Z,14.76
2023-05-08T23:01:03.455Z,14.76
2023-05-08T23:03:31.717Z,14.77
2023-05-08T23:05:59.375Z,14.77
2023-05-08T23:08:26.986Z,14.75
2023-05-08T23:10:56.087Z,14.64
2023-05-08T23:13:23.827Z,14.60
2023-05-08T23:15:51.487Z,14.55
2023-05-08T23:18:19.164Z,14.49
2023-05-08T23:20:46.811Z,14.53
2023-05-08T23:23:14.531Z,14.56
2023-05-08T23:25:42.196Z,14.53
2023-05-08T23:28:11.173Z,14.49
2023-05-08T23:30:39.112Z,14.54
2023-05-08T23:33:06.790Z,14.42
2023-05-08T23:35:34.444Z,14.47
2023-05-08T23:38:02.135Z,14.47
2023-05-08T23:40:29.984Z,14.46
2023-05-08T23:42:57.578Z,14.41
2023-05-08T23:45:26.525Z,14.42
2023-05-08T23:47:54.376Z,14.32
2023-05-08T23:50:22.252Z,14.25
2023-05-08T23:52:50.956Z,14.23
2023-05-08T23:55:18.680Z,14.21
2023-05-08T23:57:46.400Z,14.20
